Pride Of Rotterdam — PBAJ — position and weather

sailwx.info

Track history (hours):
 
Tides and Currents Weather Stations Pressure Air Temp Water Temp Dewpoint Dewpoint Depression Visibility Wind Speed Wind Dir Waves Ship Positions

Pride Of Rotterdam

Operator: P&O Ferries

Last reported at 2017-Aug-18 10:30 UTC. Time now 2017-Aug-18 10:51 UTC.
Position N 53°44' W 000°17'.

Length 214 m; draft 5.9 m.

Type: Ship. MMSI: 244980000.

Date/timePositionNaut miles runAvg speedWind from/ knotsBaromVisibWave heightAir tempDewpointWater temp
2017-Aug-18 10:30N 53°44' W 000°17'0 0.0
2017-Aug-18 09:59N 53°44' W 000°17'0 0.0
2017-Aug-18 09:29N 53°44' W 000°17'0 0.0
2017-Aug-18 08:59N 53°44' W 000°17'0 0.0
2017-Aug-18 08:29N 53°44' W 000°17'0 0.0
2017-Aug-18 07:59N 53°44' W 000°17'0 0.0
2017-Aug-18 07:28N 53°44' W 000°17'0 0.0
2017-Aug-18 06:58N 53°44' W 000°17'0 0.0
2017-Aug-18 06:28N 53°44' W 000°17'0 0.0
2017-Aug-18 05:58N 53°44' W 000°17'2 4.5
2017-Aug-18 05:30N 53°43' W 000°14'611.7
2017-Aug-18 05:00N 53°38' W 000°09'713.4
2017-Aug-18 04:28N 53°35' E 000°02'3416.8
2017-Aug-18 02:28N 53°22' E 000°54'818.1
2017-Aug-18 02:00N 53°18' E 001°07'918.3
2017-Aug-18 01:30N 53°12' E 001°18'918.9
2017-Aug-18 01:00N 53°06' E 001°31'1019.4
2017-Aug-18 00:30N 53°01' E 001°44'1019.8
2017-Aug-18 00:00N 52°55' E 001°57'1020.7
2017-Aug-17 23:30N 52°48' E 002°09'4020.2
2017-Aug-17 21:32N 52°24' E 003°03'919.4
2017-Aug-17 21:06N 52°18' E 003°12'18170.3
2017-Aug-17 21:00N 52°08' E 003°36'0 0.0
2017-Aug-17 20:30N 52°08' E 003°36'2 5.1
2017-Aug-17 20:00N 52°07' E 003°40'918.5
2017-Aug-17 19:30N 52°04' E 003°54'918.1
2017-Aug-17 19:00N 51°58' E 004°06'2 4.3
2017-Aug-17 18:30N 51°57' E 004°08'0 0.0
2017-Aug-17 18:00N 51°57' E 004°08'0 0.0
2017-Aug-17 17:30N 51°57' E 004°08'0 0.0
2017-Aug-17 17:00N 51°57' E 004°08'0 0.0
2017-Aug-17 16:30N 51°57' E 004°08'0 0.0
2017-Aug-17 16:00N 51°57' E 004°08'0 0.0
2017-Aug-17 15:30N 51°57' E 004°08'0 0.0
2017-Aug-17 15:00N 51°57' E 004°08'0 0.0
2017-Aug-17 14:30N 51°57' E 004°08'0 0.0
2017-Aug-17 14:00N 51°57' E 004°08'0 0.0
2017-Aug-17 13:30N 51°57' E 004°08'0 0.0
2017-Aug-17 13:00N 51°57' E 004°08'0 0.0
2017-Aug-17 12:30N 51°57' E 004°08'0 0.0
2017-Aug-17 12:00N 51°57' E 004°08'0 0.0
2017-Aug-17 11:30N 51°57' E 004°08'0 0.0
2017-Aug-17 11:00N 51°57' E 004°08'0 0.0
2017-Aug-17 10:30N 51°57' E 004°08'0 0.0
2017-Aug-17 10:00N 51°57' E 004°08'0 0.0
2017-Aug-17 09:30N 51°57' E 004°08'0 0.0
2017-Aug-17 09:00N 51°57' E 004°08'0 0.0
2017-Aug-17 08:30N 51°57' E 004°08'0 0.0
2017-Aug-17 08:00N 51°57' E 004°08'0 0.0
2017-Aug-17 07:29N 51°57' E 004°08'0 0.0
2017-Aug-17 07:00N 51°57' E 004°08'0 0.0
2017-Aug-17 06:31N 51°57' E 004°08'2 4.2
2017-Aug-17 06:00N 51°58' E 004°06'917.9
2017-Aug-17 05:30N 52°01' E 003°52'1424.0
2017-Aug-17 04:55N 52°07' E 003°31'511.4
2017-Aug-17 04:29N 52°09' E 003°24'1018.2
2017-Aug-17 03:56N 52°16' E 003°11'818.6
2017-Aug-17 03:29N 52°21' E 003°01'918.7
2017-Aug-17 03:00N 52°26' E 002°49'1019.1
2017-Aug-17 02:30N 52°32' E 002°37'1019.4
2017-Aug-17 01:59N 52°39' E 002°24'919.3
2017-Aug-17 01:30N 52°43' E 002°11'1019.6
2017-Aug-17 01:00N 52°48' E 001°56'1019.3
2017-Aug-17 00:30N 52°53' E 001°43'1019.2
2017-Aug-17 00:00N 52°59' E 001°30'1019.3
2017-Aug-16 23:30N 53°06' E 001°20'1120.8
2017-Aug-16 23:00N 53°14' E 001°09'3318.2
2017-Aug-16 21:11N 53°32' E 000°22'317.9
2017-Aug-16 21:00N 53°32' E 000°17'816.4
2017-Aug-16 20:30N 53°35' E 000°03'815.6
2017-Aug-16 20:00N 53°38' W 000°09'611.6
2017-Aug-16 19:30N 53°42' W 000°14'3 4.8
2017-Aug-16 18:59N 53°44' W 000°17'0 0.0
2017-Aug-16 18:28N 53°44' W 000°17'0 0.0
2017-Aug-16 17:58N 53°44' W 000°17'0 0.0
2017-Aug-16 17:28N 53°44' W 000°17'0 0.0
2017-Aug-16 16:58N 53°44' W 000°17'0 0.0
2017-Aug-16 16:28N 53°44' W 000°17'0 0.0
2017-Aug-16 16:00N 53°44' W 000°17'0 0.0
2017-Aug-16 15:30N 53°44' W 000°17'0 0.0
2017-Aug-16 15:00N 53°44' W 000°17'0 0.0
2017-Aug-16 14:30N 53°44' W 000°17'0 0.0
2017-Aug-16 13:59N 53°44' W 000°17'0 0.0
2017-Aug-16 13:29N 53°44' W 000°17'0 0.0
2017-Aug-16 12:59N 53°44' W 000°17'0 0.0
2017-Aug-16 12:29N 53°44' W 000°17'0 0.0
2017-Aug-16 11:59N 53°44' W 000°17'0 0.0
2017-Aug-16 11:28N 53°44' W 000°17'0 0.0
2017-Aug-16 10:58N 53°44' W 000°17'0 0.0
2017-Aug-16 10:28N 53°44' W 000°17'0 0.0
2017-Aug-16 09:58N 53°44' W 000°17'0 0.0
2017-Aug-16 09:31N 53°44' W 000°17'0 0.0
2017-Aug-16 09:00N 53°44' W 000°17'0 0.0
2017-Aug-16 08:30N 53°44' W 000°17'0 0.0
2017-Aug-16 08:00N 53°44' W 000°17'0 0.0
2017-Aug-16 07:30N 53°44' W 000°17'0 0.0
2017-Aug-16 06:59N 53°44' W 000°17'0 0.0
2017-Aug-16 06:29N 53°44' W 000°17'0 0.0
2017-Aug-16 06:00N 53°44' W 000°17'2 3.5
2017-Aug-16 05:30N 53°43' W 000°15'611.7
2017-Aug-16 05:00N 53°38' W 000°10'814.8
2017-Aug-16 04:29N 53°35' E 000°02'715.3
2017-Aug-16 04:00N 53°33' E 000°14'1816.3
2017-Aug-16 02:55N 53°26' E 000°41'717.5
2017-Aug-16 02:30N 53°22' E 000°52'917.8
2017-Aug-16 02:00N 53°18' E 001°05'917.9
2017-Aug-16 01:30N 53°12' E 001°16'917.7
2017-Aug-16 01:01N 53°07' E 001°28'917.8
2017-Aug-16 00:31N 53°02' E 001°40'917.8
2017-Aug-16 00:00N 52°57' E 001°52'917.8
2017-Aug-15 23:30N 52°51' E 002°04'918.7
2017-Aug-15 23:00N 52°44' E 002°15'1019.6
2017-Aug-15 22:30N 52°39' E 002°28'1019.9
2017-Aug-15 22:00N 52°34' E 002°42'3536.7
2017-Aug-15 21:03N 52°11' E 003°26'0 0.0
2017-Aug-15 21:00N 52°11' E 003°26'0 0.0
2017-Aug-15 20:30N 52°11' E 003°26'4 8.6
2017-Aug-15 20:01N 52°09' E 003°32'1019.8
2017-Aug-15 19:30N 52°05' E 003°47'917.7
2017-Aug-15 19:00N 52°01' E 003°60'612.9
2017-Aug-15 18:31N 51°57' E 004°08'0 0.9
2017-Aug-15 18:00N 51°57' E 004°08'0 0.0
2017-Aug-15 17:30N 51°57' E 004°08'0 0.0
2017-Aug-15 17:00N 51°57' E 004°08'0 0.0
2017-Aug-15 16:30N 51°57' E 004°08'0 0.0
2017-Aug-15 16:00N 51°57' E 004°08'0 0.0
2017-Aug-15 15:30N 51°57' E 004°08'0 0.0
2017-Aug-15 15:00N 51°57' E 004°08'0 0.0
2017-Aug-15 14:29N 51°57' E 004°08'0 0.0
2017-Aug-15 14:00N 51°57' E 004°08'0 0.0
2017-Aug-15 13:30N 51°57' E 004°08'0 0.0
2017-Aug-15 13:00N 51°57' E 004°08'0 0.0
2017-Aug-15 12:30N 51°57' E 004°08'0 0.0
2017-Aug-15 12:00N 51°57' E 004°08'0 0.0
2017-Aug-15 11:30N 51°57' E 004°08'0 0.0
2017-Aug-15 11:00N 51°57' E 004°08'0 0.0
2017-Aug-15 10:30N 51°57' E 004°08'0 0.0
2017-Aug-15 10:00N 51°57' E 004°08'0 0.0
2017-Aug-15 09:30N 51°57' E 004°08'0 0.0
2017-Aug-15 09:00N 51°57' E 004°08'0 0.0
2017-Aug-15 08:30N 51°57' E 004°08'0 0.0
2017-Aug-15 08:00N 51°57' E 004°08'0 0.0
2017-Aug-15 07:23N 51°57' E 004°08'0 0.0
2017-Aug-15 07:00N 51°57' E 004°08'0 0.0
2017-Aug-15 06:30N 51°57' E 004°08'2 4.3
2017-Aug-15 06:00N 51°58' E 004°06'917.6
2017-Aug-15 05:30N 52°01' E 003°52'918.5
2017-Aug-15 05:00N 52°05' E 003°39'917.6
2017-Aug-15 04:30N 52°09' E 003°26'918.2
2017-Aug-15 04:00N 52°14' E 003°14'918.1
2017-Aug-15 03:30N 52°19' E 003°01'1918.3
2017-Aug-15 02:27N 52°30' E 002°36'919.0
2017-Aug-15 02:00N 52°35' E 002°24'1019.3
2017-Aug-15 01:31N 52°41' E 002°11'1019.9
2017-Aug-15 01:00N 52°46' E 001°58'1020.4
2017-Aug-15 00:30N 52°51' E 001°43'1020.8
2017-Aug-15 00:00N 52°56' E 001°28'1020.7
2017-Aug-14 23:31N 53°01' E 001°12'1019.5
2017-Aug-14 23:00N 53°06' E 000°59'3819.0
2017-Aug-14 21:01N 53°32' E 000°13'016.8
2017-Aug-14 21:00N 53°33' E 000°13'816.2
2017-Aug-14 20:30N 53°35' E 000°00'713.8
2017-Aug-14 20:00N 53°38' W 000°10'612.8
2017-Aug-14 19:30N 53°44' W 000°16'1 1.7
2017-Aug-14 18:58N 53°44' W 000°17'0 0.0
2017-Aug-14 18:28N 53°44' W 000°17'0 0.0
2017-Aug-14 17:58N 53°44' W 000°17'0 0.0
2017-Aug-14 17:28N 53°44' W 000°17'0 0.0
2017-Aug-14 17:00N 53°44' W 000°17'0 0.0
2017-Aug-14 16:30N 53°44' W 000°17'0 0.0
2017-Aug-14 16:00N 53°44' W 000°17'0 0.0
2017-Aug-14 15:30N 53°44' W 000°17'0 0.0
2017-Aug-14 14:56N 53°44' W 000°17'0 0.0
2017-Aug-14 14:20N 53°44' W 000°17'0 0.0
2017-Aug-14 13:59N 53°44' W 000°17'0 0.0
2017-Aug-14 13:29N 53°44' W 000°17'0 0.0
2017-Aug-14 12:59N 53°44' W 000°17'0 0.0
2017-Aug-14 12:28N 53°44' W 000°17'0 0.0
2017-Aug-14 11:58N 53°44' W 000°17'0 0.0
2017-Aug-14 11:28N 53°44' W 000°17'0 0.0
2017-Aug-14 10:58N 53°44' W 000°17'0 0.0
2017-Aug-14 10:28N 53°44' W 000°17'0 0.0
2017-Aug-14 10:00N 53°44' W 000°17'0 0.0
2017-Aug-14 09:30N 53°44' W 000°17'0 0.0
2017-Aug-14 09:00N 53°44' W 000°17'0 0.0
2017-Aug-14 08:30N 53°44' W 000°17'0 0.0
2017-Aug-14 07:59N 53°44' W 000°17'0 0.0
2017-Aug-14 07:29N 53°44' W 000°17'0 0.0
2017-Aug-14 06:59N 53°44' W 000°17'0 0.0
2017-Aug-14 06:29N 53°44' W 000°17'0 0.0
2017-Aug-14 06:00N 53°44' W 000°17'1 2.2
2017-Aug-14 05:30N 53°44' W 000°15'612.5
2017-Aug-14 05:00N 53°38' W 000°10'713.6
2017-Aug-14 04:30N 53°35' W 000°00'816.5
2017-Aug-14 04:00N 53°33' E 000°14'1716.4
2017-Aug-14 02:59N 53°27' E 000°39'918.0
2017-Aug-14 02:30N 53°23' E 000°53'917.4
2017-Aug-14 02:00N 53°18' E 001°04'917.5
2017-Aug-14 01:30N 53°13' E 001°16'817.1
2017-Aug-14 01:00N 53°08' E 001°27'816.7
2017-Aug-14 00:30N 53°03' E 001°39'816.4
2017-Aug-14 00:00N 52°58' E 001°50'816.1
2017-Aug-13 23:30N 52°53' E 001°60'1116.5
2017-Aug-13 22:49N 52°45' E 002°14'817.2
2017-Aug-13 22:22N 52°40' E 002°24'917.9
2017-Aug-13 21:53N 52°35' E 002°35'4623.3
2017-Aug-13 19:55N 52°08' E 003°35'0 0.0
2017-Aug-13 19:30N 52°08' E 003°35'714.8
2017-Aug-13 19:00N 52°05' E 003°46'917.3
2017-Aug-13 18:30N 52°01' E 003°59'713.4
2017-Aug-13 18:01N 51°57' E 004°08'1 1.4
2017-Aug-13 17:29N 51°57' E 004°08'0 0.0
2017-Aug-13 17:00N 51°57' E 004°08'0 0.0
2017-Aug-13 16:30N 51°57' E 004°08'0 0.0
2017-Aug-13 16:00N 51°57' E 004°08'0 0.0
2017-Aug-13 15:30N 51°57' E 004°08'0 0.0
2017-Aug-13 15:00N 51°57' E 004°08'0 0.0
2017-Aug-13 14:30N 51°57' E 004°08'0 0.0
2017-Aug-13 14:00N 51°57' E 004°08'0 0.0
2017-Aug-13 13:30N 51°57' E 004°08'0 0.0
2017-Aug-13 13:00N 51°57' E 004°08'0 0.0
2017-Aug-13 12:30N 51°57' E 004°08'0 0.0
2017-Aug-13 12:00N 51°57' E 004°08'0 0.0
2017-Aug-13 11:30N 51°57' E 004°08'0 0.0
2017-Aug-13 11:00N 51°57' E 004°08'0 0.0
2017-Aug-13 10:30N 51°57' E 004°08'0 0.0
2017-Aug-13 10:00N 51°57' E 004°08'0 0.0
2017-Aug-13 09:30N 51°57' E 004°08'0 0.0
2017-Aug-13 09:00N 51°57' E 004°08'0 0.0
2017-Aug-13 08:30N 51°57' E 004°08'0 0.0
2017-Aug-13 08:00N 51°57' E 004°08'0 0.0
2017-Aug-13 07:30N 51°57' E 004°08'0 0.0
2017-Aug-13 07:00N 51°57' E 004°08'2 3.7
2017-Aug-13 06:31N 51°58' E 004°07'816.4
2017-Aug-13 06:00N 52°01' E 003°54'917.4
2017-Aug-13 05:30N 52°04' E 003°41'917.5
2017-Aug-13 05:00N 52°08' E 003°28'5816.1
2017-Aug-13 01:22N 52°42' E 002°10'617.0
2017-Aug-13 01:00N 52°45' E 002°02'917.3
2017-Aug-13 00:30N 52°50' E 001°50'917.5
2017-Aug-13 00:00N 52°55' E 001°37'917.9
2017-Aug-12 23:30N 52°58' E 001°24'917.9
2017-Aug-12 23:01N 53°02' E 001°10'4217.0
2017-Aug-12 20:32N 53°30' E 000°18'016.6
2017-Aug-12 20:31N 53°31' E 000°18'815.9
2017-Aug-12 20:01N 53°34' E 000°06'815.3
2017-Aug-12 19:30N 53°37' W 000°06'713.5
2017-Aug-12 19:00N 53°42' W 000°14'3 5.5
2017-Aug-12 18:28N 53°44' W 000°17'0 0.0
2017-Aug-12 18:00N 53°44' W 000°17'0 0.0
2017-Aug-12 17:30N 53°44' W 000°17'0 0.0
2017-Aug-12 17:00N 53°44' W 000°17'0 0.0
2017-Aug-12 16:30N 53°44' W 000°17'0 0.0
2017-Aug-12 16:00N 53°44' W 000°17'0 0.0
2017-Aug-12 15:29N 53°44' W 000°17'0 0.0
2017-Aug-12 14:59N 53°44' W 000°17'0 0.0
2017-Aug-12 14:29N 53°44' W 000°17'0 0.0
2017-Aug-12 13:59N 53°44' W 000°17'0 0.0
2017-Aug-12 13:28N 53°44' W 000°17'0 0.0
2017-Aug-12 12:58N 53°44' W 000°17'0 0.0
2017-Aug-12 12:28N 53°44' W 000°17'0 0.0
2017-Aug-12 11:58N 53°44' W 000°17'0 0.0
2017-Aug-12 11:28N 53°44' W 000°17'0 0.0
2017-Aug-12 11:00N 53°44' W 000°17'0 0.0
2017-Aug-12 10:30N 53°44' W 000°17'0 0.0
2017-Aug-12 10:00N 53°44' W 000°17'0 0.0
2017-Aug-12 09:30N 53°44' W 000°17'0 0.0
2017-Aug-12 09:00N 53°44' W 000°17'0 0.0
2017-Aug-12 08:29N 53°44' W 000°17'0 0.0
2017-Aug-12 07:59N 53°44' W 000°17'0 0.0
2017-Aug-12 07:29N 53°44' W 000°17'0 0.0
2017-Aug-12 06:59N 53°44' W 000°17'1 1.7
2017-Aug-12 06:30N 53°44' W 000°16'612.9
2017-Aug-12 06:00N 53°38' W 000°10'4116.5
2017-Aug-12 03:30N 53°22' E 000°54'917.6
2017-Aug-12 03:00N 53°18' E 001°07'918.1
2017-Aug-12 02:30N 53°12' E 001°19'917.9
2017-Aug-12 02:00N 53°07' E 001°30'917.4
2017-Aug-12 01:30N 53°02' E 001°42'816.9
2017-Aug-12 01:00N 52°56' E 001°53'816.2
2017-Aug-12 00:30N 52°51' E 002°03'815.7
2017-Aug-12 00:00N 52°45' E 002°11'2815.7
2017-Aug-11 22:12N 52°28' E 002°49'315.9
2017-Aug-11 22:00N 52°26' E 002°53'1416.0
2017-Aug-11 21:06N 52°18' E 003°12'316.2
2017-Aug-11 20:57N 52°16' E 003°16'920.2
2017-Aug-11 20:30N 52°11' E 003°28'613.3
2017-Aug-11 20:00N 52°07' E 003°37'816.7
2017-Aug-11 19:30N 52°04' E 003°49'816.9
2017-Aug-11 19:01N 52°00' E 004°01'510.4
2017-Aug-11 18:30N 51°57' E 004°08'0 0.6
2017-Aug-11 18:00N 51°57' E 004°08'0 0.0
2017-Aug-11 17:30N 51°57' E 004°08'0 0.0
2017-Aug-11 17:00N 51°57' E 004°08'0 0.0
2017-Aug-11 16:30N 51°57' E 004°08'0 0.0
2017-Aug-11 16:00N 51°57' E 004°08'0 0.0
2017-Aug-11 15:30N 51°57' E 004°08'0 0.0
2017-Aug-11 15:00N 51°57' E 004°08'0 0.0
2017-Aug-11 14:00N 51°57' E 004°08'0 0.0
2017-Aug-11 13:30N 51°57' E 004°08'0 0.0
2017-Aug-11 13:00N 51°57' E 004°08'0 0.0
2017-Aug-11 12:30N 51°57' E 004°08'0 0.0
2017-Aug-11 12:00N 51°57' E 004°08'0 0.0
2017-Aug-11 11:30N 51°57' E 004°08'0 0.0
2017-Aug-11 11:00N 51°57' E 004°08'0 0.0
2017-Aug-11 10:30N 51°57' E 004°08'0 0.0
2017-Aug-11 10:00N 51°57' E 004°08'0 0.0
2017-Aug-11 09:30N 51°57' E 004°08'0 0.0
2017-Aug-11 09:00N 51°57' E 004°08'0 0.0
2017-Aug-11 08:30N 51°57' E 004°08'0 0.0
2017-Aug-11 08:00N 51°57' E 004°08'0 0.0
2017-Aug-11 07:30N 51°57' E 004°08'0 0.0
2017-Aug-11 07:00N 51°57' E 004°08'0 0.0
2017-Aug-11 06:30N 51°57' E 004°08'2 4.1
2017-Aug-11 06:00N 51°58' E 004°06'918.5
2017-Aug-11 05:30N 52°01' E 003°52'1120.9
2017-Aug-11 05:00N 52°06' E 003°36'6418.3
2017-Aug-11 01:30N 52°45' E 002°13'918.7
2017-Aug-11 01:00N 52°51' E 002°02'918.7
2017-Aug-11 00:30N 52°57' E 001°50'1019.0
2017-Aug-11 00:00N 53°03' E 001°37'919.0
2017-Aug-10 23:30N 53°08' E 001°24'1019.1
2017-Aug-10 23:00N 53°14' E 001°12'918.7
2017-Aug-10 22:30N 53°20' E 000°60'3717.8
2017-Aug-10 20:25N 53°35' E 000°02'716.2
2017-Aug-10 20:00N 53°38' W 000°08'713.5
2017-Aug-10 19:30N 53°43' W 000°15'2 3.1
2017-Aug-10 19:00N 53°44' W 000°17'0 0.0
2017-Aug-10 18:30N 53°44' W 000°17'0 0.0
2017-Aug-10 17:59N 53°44' W 000°17'0 0.0
2017-Aug-10 17:29N 53°44' W 000°17'0 0.0
2017-Aug-10 16:59N 53°44' W 000°17'0 0.0
2017-Aug-10 16:29N 53°44' W 000°17'0 0.0
2017-Aug-10 15:58N 53°44' W 000°17'0 0.0
2017-Aug-10 15:28N 53°44' W 000°17'0 0.0
2017-Aug-10 14:58N 53°44' W 000°17'0 0.0
2017-Aug-10 14:28N 53°44' W 000°17'0 0.0
2017-Aug-10 13:58N 53°44' W 000°17'0 0.0
2017-Aug-10 13:30N 53°44' W 000°17'0 0.0
2017-Aug-10 13:00N 53°44' W 000°17'0 0.0
2017-Aug-10 12:30N 53°44' W 000°17'0 0.0
2017-Aug-10 12:00N 53°44' W 000°17'0 0.0
2017-Aug-10 11:30N 53°44' W 000°17'0 0.0
2017-Aug-10 10:59N 53°44' W 000°17'0 0.0
2017-Aug-10 10:29N 53°44' W 000°17'0 0.0
2017-Aug-10 09:59N 53°44' W 000°17'0 0.0
2017-Aug-10 09:29N 53°44' W 000°17'0 0.0
2017-Aug-10 08:58N 53°44' W 000°17'0 0.0
2017-Aug-10 08:28N 53°44' W 000°17'0 0.0
2017-Aug-10 07:58N 53°44' W 000°17'0 0.0
2017-Aug-10 07:28N 53°44' W 000°17'0 0.0
2017-Aug-10 06:58N 53°44' W 000°17'0 0.0
2017-Aug-10 06:30N 53°44' W 000°17'0 0.0
2017-Aug-10 06:00N 53°44' W 000°17'1 2.5
2017-Aug-10 05:30N 53°44' W 000°15'713.8
2017-Aug-10 05:00N 53°38' W 000°08'4217.9
2017-Aug-10 02:39N 53°21' E 000°56'819.5
2017-Aug-10 02:13N 53°15' E 001°07'420.1
2017-Aug-10 02:00N 53°12' E 001°12'1020.5
2017-Aug-10 01:30N 53°05' E 001°23'1020.2
2017-Aug-10 01:00N 52°57' E 001°35'1019.8
2017-Aug-10 00:30N 52°51' E 001°47'918.8
2017-Aug-10 00:00N 52°45' E 001°60'5820.0
2017-Aug-09 21:06N 52°12' E 003°19'0 0.0
2017-Aug-09 21:00N 52°12' E 003°19'4 8.6
2017-Aug-09 20:30N 52°10' E 003°25'918.6
2017-Aug-09 20:00N 52°06' E 003°39'917.6
2017-Aug-09 19:31N 52°04' E 003°52'918.3
2017-Aug-09 19:00N 51°59' E 004°05'3 5.5
2017-Aug-09 18:30N 51°57' E 004°08'0 0.0
2017-Aug-09 18:00N 51°57' E 004°08'0 0.0
2017-Aug-09 17:30N 51°57' E 004°08'0 0.0
2017-Aug-09 17:00N 51°57' E 004°08'0 0.0
2017-Aug-09 16:30N 51°57' E 004°08'0 0.0
2017-Aug-09 16:00N 51°57' E 004°08'0 0.0
2017-Aug-09 15:29N 51°57' E 004°08'0 0.0
2017-Aug-09 14:50N 51°57' E 004°08'0 0.0
2017-Aug-09 14:30N 51°57' E 004°08'0 0.0
2017-Aug-09 14:00N 51°57' E 004°08'0 0.0
2017-Aug-09 13:30N 51°57' E 004°08'0 0.0
2017-Aug-09 13:00N 51°57' E 004°08'0 0.0
2017-Aug-09 12:30N 51°57' E 004°08'0 0.0
2017-Aug-09 12:00N 51°57' E 004°08'0 0.0
2017-Aug-09 11:30N 51°57' E 004°08'0 0.0
2017-Aug-09 11:00N 51°57' E 004°08'0 0.0
2017-Aug-09 10:30N 51°57' E 004°08'0 0.0
2017-Aug-09 10:00N 51°57' E 004°08'0 0.0
2017-Aug-09 09:30N 51°57' E 004°08'0 0.0
2017-Aug-09 09:00N 51°57' E 004°08'0 0.0
2017-Aug-09 08:30N 51°57' E 004°08'0 0.0
2017-Aug-09 08:00N 51°57' E 004°08'0 0.0
2017-Aug-09 07:30N 51°57' E 004°08'0 0.0
2017-Aug-09 07:00N 51°57' E 004°08'0 0.0
2017-Aug-09 06:31N 51°57' E 004°08'3 7.0
2017-Aug-09 06:00N 51°59' E 004°04'917.5
2017-Aug-09 05:30N 52°02' E 003°50'7218.0
2017-Aug-09 01:30N 52°44' E 002°15'918.1
2017-Aug-09 01:00N 52°51' E 002°04'918.1
2017-Aug-09 00:30N 52°56' E 001°52'918.3
2017-Aug-09 00:00N 53°01' E 001°40'918.7
2017-Aug-08 23:30N 53°06' E 001°27'918.7
2017-Aug-08 23:00N 53°12' E 001°15'918.6
2017-Aug-08 22:30N 53°18' E 001°03'4018.4
2017-Aug-08 20:19N 53°35' E 000°02'619.6
2017-Aug-08 20:00N 53°38' W 000°08'816.6
2017-Aug-08 19:30N 53°44' W 000°16'0 0.6
2017-Aug-08 18:58N 53°44' W 000°17'0 0.0
2017-Aug-08 18:28N 53°44' W 000°17'0 0.0
2017-Aug-08 18:00N 53°44' W 000°17'0 0.0
2017-Aug-08 17:30N 53°44' W 000°17'0 0.0
2017-Aug-08 17:00N 53°44' W 000°17'0 0.0
2017-Aug-08 16:30N 53°44' W 000°17'0 0.0
2017-Aug-08 16:00N 53°44' W 000°17'0 0.0
2017-Aug-08 15:29N 53°44' W 000°17'0 0.0
2017-Aug-08 14:59N 53°44' W 000°17'0 0.0
2017-Aug-08 14:29N 53°44' W 000°17'0 0.0
2017-Aug-08 13:59N 53°44' W 000°17'0 0.0
2017-Aug-08 13:28N 53°44' W 000°17'0 0.0
2017-Aug-08 12:58N 53°44' W 000°17'0 0.0
2017-Aug-08 12:28N 53°44' W 000°17'0 0.0
2017-Aug-08 11:58N 53°44' W 000°17'0 0.0
2017-Aug-08 11:28N 53°44' W 000°17'0 0.0
2017-Aug-08 11:00N 53°44' W 000°17'0 0.0
2017-Aug-08 10:30N 53°44' W 000°17'  
Track history (hours):
 
Tides and Currents Weather Stations Pressure Air Temp Water Temp Dewpoint Dewpoint Depression Visibility Wind Speed Wind Dir Waves Ship Positions

Pride Of Rotterdam

Operator: P&O Ferries

Last reported at 2017-Aug-18 10:30 UTC. Time now 2017-Aug-18 10:51 UTC.
Position N 53°44' W 000°17'.

Length 214 m; draft 5.9 m.

Type: Ship. MMSI: 244980000.

Date/timePositionNaut miles runAvg speedWind from/ knotsBaromVisibWave heightAir tempDewpointWater temp
2017-Aug-18 10:30N 53°44' W 000°17'0 0.0
2017-Aug-18 09:59N 53°44' W 000°17'0 0.0
2017-Aug-18 09:29N 53°44' W 000°17'0 0.0
2017-Aug-18 08:59N 53°44' W 000°17'0 0.0
2017-Aug-18 08:29N 53°44' W 000°17'0 0.0
2017-Aug-18 07:59N 53°44' W 000°17'0 0.0
2017-Aug-18 07:28N 53°44' W 000°17'0 0.0
2017-Aug-18 06:58N 53°44' W 000°17'0 0.0
2017-Aug-18 06:28N 53°44' W 000°17'0 0.0
2017-Aug-18 05:58N 53°44' W 000°17'2 4.5
2017-Aug-18 05:30N 53°43' W 000°14'611.7
2017-Aug-18 05:00N 53°38' W 000°09'713.4
2017-Aug-18 04:28N 53°35' E 000°02'3416.8
2017-Aug-18 02:28N 53°22' E 000°54'818.1
2017-Aug-18 02:00N 53°18' E 001°07'918.3
2017-Aug-18 01:30N 53°12' E 001°18'918.9
2017-Aug-18 01:00N 53°06' E 001°31'1019.4
2017-Aug-18 00:30N 53°01' E 001°44'1019.8
2017-Aug-18 00:00N 52°55' E 001°57'1020.7
2017-Aug-17 23:30N 52°48' E 002°09'4020.2
2017-Aug-17 21:32N 52°24' E 003°03'919.4
2017-Aug-17 21:06N 52°18' E 003°12'18170.3
2017-Aug-17 21:00N 52°08' E 003°36'0 0.0
2017-Aug-17 20:30N 52°08' E 003°36'2 5.1
2017-Aug-17 20:00N 52°07' E 003°40'918.5
2017-Aug-17 19:30N 52°04' E 003°54'918.1
2017-Aug-17 19:00N 51°58' E 004°06'2 4.3
2017-Aug-17 18:30N 51°57' E 004°08'0 0.0
2017-Aug-17 18:00N 51°57' E 004°08'0 0.0
2017-Aug-17 17:30N 51°57' E 004°08'0 0.0
2017-Aug-17 17:00N 51°57' E 004°08'0 0.0
2017-Aug-17 16:30N 51°57' E 004°08'0 0.0
2017-Aug-17 16:00N 51°57' E 004°08'0 0.0
2017-Aug-17 15:30N 51°57' E 004°08'0 0.0
2017-Aug-17 15:00N 51°57' E 004°08'0 0.0
2017-Aug-17 14:30N 51°57' E 004°08'0 0.0
2017-Aug-17 14:00N 51°57' E 004°08'0 0.0
2017-Aug-17 13:30N 51°57' E 004°08'0 0.0
2017-Aug-17 13:00N 51°57' E 004°08'0 0.0
2017-Aug-17 12:30N 51°57' E 004°08'0 0.0
2017-Aug-17 12:00N 51°57' E 004°08'0 0.0
2017-Aug-17 11:30N 51°57' E 004°08'0 0.0
2017-Aug-17 11:00N 51°57' E 004°08'0 0.0
2017-Aug-17 10:30N 51°57' E 004°08'0 0.0
2017-Aug-17 10:00N 51°57' E 004°08'0 0.0
2017-Aug-17 09:30N 51°57' E 004°08'0 0.0
2017-Aug-17 09:00N 51°57' E 004°08'0 0.0
2017-Aug-17 08:30N 51°57' E 004°08'0 0.0
2017-Aug-17 08:00N 51°57' E 004°08'0 0.0
2017-Aug-17 07:29N 51°57' E 004°08'0 0.0
2017-Aug-17 07:00N 51°57' E 004°08'0 0.0
2017-Aug-17 06:31N 51°57' E 004°08'2 4.2
2017-Aug-17 06:00N 51°58' E 004°06'917.9
2017-Aug-17 05:30N 52°01' E 003°52'1424.0
2017-Aug-17 04:55N 52°07' E 003°31'511.4
2017-Aug-17 04:29N 52°09' E 003°24'1018.2
2017-Aug-17 03:56N 52°16' E 003°11'818.6
2017-Aug-17 03:29N 52°21' E 003°01'918.7
2017-Aug-17 03:00N 52°26' E 002°49'1019.1
2017-Aug-17 02:30N 52°32' E 002°37'1019.4
2017-Aug-17 01:59N 52°39' E 002°24'919.3
2017-Aug-17 01:30N 52°43' E 002°11'1019.6
2017-Aug-17 01:00N 52°48' E 001°56'1019.3
2017-Aug-17 00:30N 52°53' E 001°43'1019.2
2017-Aug-17 00:00N 52°59' E 001°30'1019.3
2017-Aug-16 23:30N 53°06' E 001°20'1120.8
2017-Aug-16 23:00N 53°14' E 001°09'3318.2
2017-Aug-16 21:11N 53°32' E 000°22'317.9
2017-Aug-16 21:00N 53°32' E 000°17'816.4
2017-Aug-16 20:30N 53°35' E 000°03'815.6
2017-Aug-16 20:00N 53°38' W 000°09'611.6
2017-Aug-16 19:30N 53°42' W 000°14'3 4.8
2017-Aug-16 18:59N 53°44' W 000°17'0 0.0
2017-Aug-16 18:28N 53°44' W 000°17'0 0.0
2017-Aug-16 17:58N 53°44' W 000°17'0 0.0
2017-Aug-16 17:28N 53°44' W 000°17'0 0.0
2017-Aug-16 16:58N 53°44' W 000°17'0 0.0
2017-Aug-16 16:28N 53°44' W 000°17'0 0.0
2017-Aug-16 16:00N 53°44' W 000°17'0 0.0
2017-Aug-16 15:30N 53°44' W 000°17'0 0.0
2017-Aug-16 15:00N 53°44' W 000°17'0 0.0
2017-Aug-16 14:30N 53°44' W 000°17'0 0.0
2017-Aug-16 13:59N 53°44' W 000°17'0 0.0
2017-Aug-16 13:29N 53°44' W 000°17'0 0.0
2017-Aug-16 12:59N 53°44' W 000°17'0 0.0
2017-Aug-16 12:29N 53°44' W 000°17'0 0.0
2017-Aug-16 11:59N 53°44' W 000°17'0 0.0
2017-Aug-16 11:28N 53°44' W 000°17'0 0.0
2017-Aug-16 10:58N 53°44' W 000°17'0 0.0
2017-Aug-16 10:28N 53°44' W 000°17'0 0.0
2017-Aug-16 09:58N 53°44' W 000°17'0 0.0
2017-Aug-16 09:31N 53°44' W 000°17'0 0.0
2017-Aug-16 09:00N 53°44' W 000°17'0 0.0
2017-Aug-16 08:30N 53°44' W 000°17'0 0.0
2017-Aug-16 08:00N 53°44' W 000°17'0 0.0
2017-Aug-16 07:30N 53°44' W 000°17'0 0.0
2017-Aug-16 06:59N 53°44' W 000°17'0 0.0
2017-Aug-16 06:29N 53°44' W 000°17'0 0.0
2017-Aug-16 06:00N 53°44' W 000°17'2 3.5
2017-Aug-16 05:30N 53°43' W 000°15'611.7
2017-Aug-16 05:00N 53°38' W 000°10'814.8
2017-Aug-16 04:29N 53°35' E 000°02'715.3
2017-Aug-16 04:00N 53°33' E 000°14'1816.3
2017-Aug-16 02:55N 53°26' E 000°41'717.5
2017-Aug-16 02:30N 53°22' E 000°52'917.8
2017-Aug-16 02:00N 53°18' E 001°05'917.9
2017-Aug-16 01:30N 53°12' E 001°16'917.7
2017-Aug-16 01:01N 53°07' E 001°28'917.8
2017-Aug-16 00:31N 53°02' E 001°40'917.8
2017-Aug-16 00:00N 52°57' E 001°52'917.8
2017-Aug-15 23:30N 52°51' E 002°04'918.7
2017-Aug-15 23:00N 52°44' E 002°15'1019.6
2017-Aug-15 22:30N 52°39' E 002°28'1019.9
2017-Aug-15 22:00N 52°34' E 002°42'3536.7
2017-Aug-15 21:03N 52°11' E 003°26'0 0.0
2017-Aug-15 21:00N 52°11' E 003°26'0 0.0
2017-Aug-15 20:30N 52°11' E 003°26'4 8.6
2017-Aug-15 20:01N 52°09' E 003°32'1019.8
2017-Aug-15 19:30N 52°05' E 003°47'917.7
2017-Aug-15 19:00N 52°01' E 003°60'612.9
2017-Aug-15 18:31N 51°57' E 004°08'0 0.9
2017-Aug-15 18:00N 51°57' E 004°08'0 0.0
2017-Aug-15 17:30N 51°57' E 004°08'0 0.0
2017-Aug-15 17:00N 51°57' E 004°08'0 0.0
2017-Aug-15 16:30N 51°57' E 004°08'0 0.0
2017-Aug-15 16:00N 51°57' E 004°08'0 0.0
2017-Aug-15 15:30N 51°57' E 004°08'0 0.0
2017-Aug-15 15:00N 51°57' E 004°08'0 0.0
2017-Aug-15 14:29N 51°57' E 004°08'0 0.0
2017-Aug-15 14:00N 51°57' E 004°08'0 0.0
2017-Aug-15 13:30N 51°57' E 004°08'0 0.0
2017-Aug-15 13:00N 51°57' E 004°08'0 0.0
2017-Aug-15 12:30N 51°57' E 004°08'0 0.0
2017-Aug-15 12:00N 51°57' E 004°08'0 0.0
2017-Aug-15 11:30N 51°57' E 004°08'0 0.0
2017-Aug-15 11:00N 51°57' E 004°08'0 0.0
2017-Aug-15 10:30N 51°57' E 004°08'0 0.0
2017-Aug-15 10:00N 51°57' E 004°08'0 0.0
2017-Aug-15 09:30N 51°57' E 004°08'0 0.0
2017-Aug-15 09:00N 51°57' E 004°08'0 0.0
2017-Aug-15 08:30N 51°57' E 004°08'0 0.0
2017-Aug-15 08:00N 51°57' E 004°08'0 0.0
2017-Aug-15 07:23N 51°57' E 004°08'0 0.0
2017-Aug-15 07:00N 51°57' E 004°08'0 0.0
2017-Aug-15 06:30N 51°57' E 004°08'2 4.3
2017-Aug-15 06:00N 51°58' E 004°06'917.6
2017-Aug-15 05:30N 52°01' E 003°52'918.5
2017-Aug-15 05:00N 52°05' E 003°39'917.6
2017-Aug-15 04:30N 52°09' E 003°26'918.2
2017-Aug-15 04:00N 52°14' E 003°14'918.1
2017-Aug-15 03:30N 52°19' E 003°01'1918.3
2017-Aug-15 02:27N 52°30' E 002°36'919.0
2017-Aug-15 02:00N 52°35' E 002°24'1019.3
2017-Aug-15 01:31N 52°41' E 002°11'1019.9
2017-Aug-15 01:00N 52°46' E 001°58'1020.4
2017-Aug-15 00:30N 52°51' E 001°43'1020.8
2017-Aug-15 00:00N 52°56' E 001°28'1020.7
2017-Aug-14 23:31N 53°01' E 001°12'1019.5
2017-Aug-14 23:00N 53°06' E 000°59'3819.0
2017-Aug-14 21:01N 53°32' E 000°13'016.8
2017-Aug-14 21:00N 53°33' E 000°13'816.2
2017-Aug-14 20:30N 53°35' E 000°00'713.8
2017-Aug-14 20:00N 53°38' W 000°10'612.8
2017-Aug-14 19:30N 53°44' W 000°16'1 1.7
2017-Aug-14 18:58N 53°44' W 000°17'0 0.0
2017-Aug-14 18:28N 53°44' W 000°17'0 0.0
2017-Aug-14 17:58N 53°44' W 000°17'0 0.0
2017-Aug-14 17:28N 53°44' W 000°17'0 0.0
2017-Aug-14 17:00N 53°44' W 000°17'0 0.0
2017-Aug-14 16:30N 53°44' W 000°17'0 0.0
2017-Aug-14 16:00N 53°44' W 000°17'0 0.0
2017-Aug-14 15:30N 53°44' W 000°17'0 0.0
2017-Aug-14 14:56N 53°44' W 000°17'0 0.0
2017-Aug-14 14:20N 53°44' W 000°17'0 0.0
2017-Aug-14 13:59N 53°44' W 000°17'0 0.0
2017-Aug-14 13:29N 53°44' W 000°17'0 0.0
2017-Aug-14 12:59N 53°44' W 000°17'0 0.0
2017-Aug-14 12:28N 53°44' W 000°17'0 0.0
2017-Aug-14 11:58N 53°44' W 000°17'0 0.0
2017-Aug-14 11:28N 53°44' W 000°17'0 0.0
2017-Aug-14 10:58N 53°44' W 000°17'0 0.0
2017-Aug-14 10:28N 53°44' W 000°17'0 0.0
2017-Aug-14 10:00N 53°44' W 000°17'0 0.0
2017-Aug-14 09:30N 53°44' W 000°17'0 0.0
2017-Aug-14 09:00N 53°44' W 000°17'0 0.0
2017-Aug-14 08:30N 53°44' W 000°17'0 0.0
2017-Aug-14 07:59N 53°44' W 000°17'0 0.0
2017-Aug-14 07:29N 53°44' W 000°17'0 0.0
2017-Aug-14 06:59N 53°44' W 000°17'0 0.0
2017-Aug-14 06:29N 53°44' W 000°17'0 0.0
2017-Aug-14 06:00N 53°44' W 000°17'1 2.2
2017-Aug-14 05:30N 53°44' W 000°15'612.5
2017-Aug-14 05:00N 53°38' W 000°10'713.6
2017-Aug-14 04:30N 53°35' W 000°00'816.5
2017-Aug-14 04:00N 53°33' E 000°14'1716.4
2017-Aug-14 02:59N 53°27' E 000°39'918.0
2017-Aug-14 02:30N 53°23' E 000°53'917.4
2017-Aug-14 02:00N 53°18' E 001°04'917.5
2017-Aug-14 01:30N 53°13' E 001°16'817.1
2017-Aug-14 01:00N 53°08' E 001°27'816.7
2017-Aug-14 00:30N 53°03' E 001°39'816.4
2017-Aug-14 00:00N 52°58' E 001°50'816.1
2017-Aug-13 23:30N 52°53' E 001°60'1116.5
2017-Aug-13 22:49N 52°45' E 002°14'817.2
2017-Aug-13 22:22N 52°40' E 002°24'917.9
2017-Aug-13 21:53N 52°35' E 002°35'4623.3
2017-Aug-13 19:55N 52°08' E 003°35'0 0.0
2017-Aug-13 19:30N 52°08' E 003°35'714.8
2017-Aug-13 19:00N 52°05' E 003°46'917.3
2017-Aug-13 18:30N 52°01' E 003°59'713.4
2017-Aug-13 18:01N 51°57' E 004°08'1 1.4
2017-Aug-13 17:29N 51°57' E 004°08'0 0.0
2017-Aug-13 17:00N 51°57' E 004°08'0 0.0
2017-Aug-13 16:30N 51°57' E 004°08'0 0.0
2017-Aug-13 16:00N 51°57' E 004°08'0 0.0
2017-Aug-13 15:30N 51°57' E 004°08'0 0.0
2017-Aug-13 15:00N 51°57' E 004°08'0 0.0
2017-Aug-13 14:30N 51°57' E 004°08'0 0.0
2017-Aug-13 14:00N 51°57' E 004°08'0 0.0
2017-Aug-13 13:30N 51°57' E 004°08'0 0.0
2017-Aug-13 13:00N 51°57' E 004°08'0 0.0
2017-Aug-13 12:30N 51°57' E 004°08'0 0.0
2017-Aug-13 12:00N 51°57' E 004°08'0 0.0
2017-Aug-13 11:30N 51°57' E 004°08'0 0.0
2017-Aug-13 11:00N 51°57' E 004°08'0 0.0
2017-Aug-13 10:30N 51°57' E 004°08'0 0.0
2017-Aug-13 10:00N 51°57' E 004°08'0 0.0
2017-Aug-13 09:30N 51°57' E 004°08'0 0.0
2017-Aug-13 09:00N 51°57' E 004°08'0 0.0
2017-Aug-13 08:30N 51°57' E 004°08'0 0.0
2017-Aug-13 08:00N 51°57' E 004°08'0 0.0
2017-Aug-13 07:30N 51°57' E 004°08'0 0.0
2017-Aug-13 07:00N 51°57' E 004°08'2 3.7
2017-Aug-13 06:31N 51°58' E 004°07'816.4
2017-Aug-13 06:00N 52°01' E 003°54'917.4
2017-Aug-13 05:30N 52°04' E 003°41'917.5
2017-Aug-13 05:00N 52°08' E 003°28'5816.1
2017-Aug-13 01:22N 52°42' E 002°10'617.0
2017-Aug-13 01:00N 52°45' E 002°02'917.3
2017-Aug-13 00:30N 52°50' E 001°50'917.5
2017-Aug-13 00:00N 52°55' E 001°37'917.9
2017-Aug-12 23:30N 52°58' E 001°24'917.9
2017-Aug-12 23:01N 53°02' E 001°10'4217.0
2017-Aug-12 20:32N 53°30' E 000°18'016.6
2017-Aug-12 20:31N 53°31' E 000°18'815.9
2017-Aug-12 20:01N 53°34' E 000°06'815.3
2017-Aug-12 19:30N 53°37' W 000°06'713.5
2017-Aug-12 19:00N 53°42' W 000°14'3 5.5
2017-Aug-12 18:28N 53°44' W 000°17'0 0.0
2017-Aug-12 18:00N 53°44' W 000°17'0 0.0
2017-Aug-12 17:30N 53°44' W 000°17'0 0.0
2017-Aug-12 17:00N 53°44' W 000°17'0 0.0
2017-Aug-12 16:30N 53°44' W 000°17'0 0.0
2017-Aug-12 16:00N 53°44' W 000°17'0 0.0
2017-Aug-12 15:29N 53°44' W 000°17'0 0.0
2017-Aug-12 14:59N 53°44' W 000°17'0 0.0
2017-Aug-12 14:29N 53°44' W 000°17'0 0.0
2017-Aug-12 13:59N 53°44' W 000°17'0 0.0
2017-Aug-12 13:28N 53°44' W 000°17'0 0.0
2017-Aug-12 12:58N 53°44' W 000°17'0 0.0
2017-Aug-12 12:28N 53°44' W 000°17'0 0.0
2017-Aug-12 11:58N 53°44' W 000°17'0 0.0
2017-Aug-12 11:28N 53°44' W 000°17'0 0.0
2017-Aug-12 11:00N 53°44' W 000°17'0 0.0
2017-Aug-12 10:30N 53°44' W 000°17'0 0.0
2017-Aug-12 10:00N 53°44' W 000°17'0 0.0
2017-Aug-12 09:30N 53°44' W 000°17'0 0.0
2017-Aug-12 09:00N 53°44' W 000°17'0 0.0
2017-Aug-12 08:29N 53°44' W 000°17'0 0.0
2017-Aug-12 07:59N 53°44' W 000°17'0 0.0
2017-Aug-12 07:29N 53°44' W 000°17'0 0.0
2017-Aug-12 06:59N 53°44' W 000°17'1 1.7
2017-Aug-12 06:30N 53°44' W 000°16'612.9
2017-Aug-12 06:00N 53°38' W 000°10'4116.5
2017-Aug-12 03:30N 53°22' E 000°54'917.6
2017-Aug-12 03:00N 53°18' E 001°07'918.1
2017-Aug-12 02:30N 53°12' E 001°19'917.9
2017-Aug-12 02:00N 53°07' E 001°30'917.4
2017-Aug-12 01:30N 53°02' E 001°42'816.9
2017-Aug-12 01:00N 52°56' E 001°53'816.2
2017-Aug-12 00:30N 52°51' E 002°03'815.7
2017-Aug-12 00:00N 52°45' E 002°11'2815.7
2017-Aug-11 22:12N 52°28' E 002°49'315.9
2017-Aug-11 22:00N 52°26' E 002°53'1416.0
2017-Aug-11 21:06N 52°18' E 003°12'316.2
2017-Aug-11 20:57N 52°16' E 003°16'920.2
2017-Aug-11 20:30N 52°11' E 003°28'613.3
2017-Aug-11 20:00N 52°07' E 003°37'816.7
2017-Aug-11 19:30N 52°04' E 003°49'816.9
2017-Aug-11 19:01N 52°00' E 004°01'510.4
2017-Aug-11 18:30N 51°57' E 004°08'0 0.6
2017-Aug-11 18:00N 51°57' E 004°08'0 0.0
2017-Aug-11 17:30N 51°57' E 004°08'0 0.0
2017-Aug-11 17:00N 51°57' E 004°08'0 0.0
2017-Aug-11 16:30N 51°57' E 004°08'0 0.0
2017-Aug-11 16:00N 51°57' E 004°08'0 0.0
2017-Aug-11 15:30N 51°57' E 004°08'0 0.0
2017-Aug-11 15:00N 51°57' E 004°08'0 0.0
2017-Aug-11 14:00N 51°57' E 004°08'0 0.0
2017-Aug-11 13:30N 51°57' E 004°08'0 0.0
2017-Aug-11 13:00N 51°57' E 004°08'0 0.0
2017-Aug-11 12:30N 51°57' E 004°08'0 0.0
2017-Aug-11 12:00N 51°57' E 004°08'0 0.0
2017-Aug-11 11:30N 51°57' E 004°08'0 0.0
2017-Aug-11 11:00N 51°57' E 004°08'0 0.0
2017-Aug-11 10:30N 51°57' E 004°08'0 0.0
2017-Aug-11 10:00N 51°57' E 004°08'0 0.0
2017-Aug-11 09:30N 51°57' E 004°08'0 0.0
2017-Aug-11 09:00N 51°57' E 004°08'0 0.0
2017-Aug-11 08:30N 51°57' E 004°08'0 0.0
2017-Aug-11 08:00N 51°57' E 004°08'0 0.0
2017-Aug-11 07:30N 51°57' E 004°08'0 0.0
2017-Aug-11 07:00N 51°57' E 004°08'0 0.0
2017-Aug-11 06:30N 51°57' E 004°08'2 4.1
2017-Aug-11 06:00N 51°58' E 004°06'918.5
2017-Aug-11 05:30N 52°01' E 003°52'1120.9
2017-Aug-11 05:00N 52°06' E 003°36'6418.3
2017-Aug-11 01:30N 52°45' E 002°13'918.7
2017-Aug-11 01:00N 52°51' E 002°02'918.7
2017-Aug-11 00:30N 52°57' E 001°50'1019.0
2017-Aug-11 00:00N 53°03' E 001°37'919.0
2017-Aug-10 23:30N 53°08' E 001°24'1019.1
2017-Aug-10 23:00N 53°14' E 001°12'918.7
2017-Aug-10 22:30N 53°20' E 000°60'3717.8
2017-Aug-10 20:25N 53°35' E 000°02'716.2
2017-Aug-10 20:00N 53°38' W 000°08'713.5
2017-Aug-10 19:30N 53°43' W 000°15'2 3.1
2017-Aug-10 19:00N 53°44' W 000°17'0 0.0
2017-Aug-10 18:30N 53°44' W 000°17'0 0.0
2017-Aug-10 17:59N 53°44' W 000°17'0 0.0
2017-Aug-10 17:29N 53°44' W 000°17'0 0.0
2017-Aug-10 16:59N 53°44' W 000°17'0 0.0
2017-Aug-10 16:29N 53°44' W 000°17'0 0.0
2017-Aug-10 15:58N 53°44' W 000°17'0 0.0
2017-Aug-10 15:28N 53°44' W 000°17'0 0.0
2017-Aug-10 14:58N 53°44' W 000°17'0 0.0
2017-Aug-10 14:28N 53°44' W 000°17'0 0.0
2017-Aug-10 13:58N 53°44' W 000°17'0 0.0
2017-Aug-10 13:30N 53°44' W 000°17'0 0.0
2017-Aug-10 13:00N 53°44' W 000°17'0 0.0
2017-Aug-10 12:30N 53°44' W 000°17'0 0.0
2017-Aug-10 12:00N 53°44' W 000°17'0 0.0
2017-Aug-10 11:30N 53°44' W 000°17'0 0.0
2017-Aug-10 10:59N 53°44' W 000°17'0 0.0
2017-Aug-10 10:29N 53°44' W 000°17'0 0.0
2017-Aug-10 09:59N 53°44' W 000°17'0 0.0
2017-Aug-10 09:29N 53°44' W 000°17'0 0.0
2017-Aug-10 08:58N 53°44' W 000°17'0 0.0
2017-Aug-10 08:28N 53°44' W 000°17'0 0.0
2017-Aug-10 07:58N 53°44' W 000°17'0 0.0
2017-Aug-10 07:28N 53°44' W 000°17'0 0.0
2017-Aug-10 06:58N 53°44' W 000°17'0 0.0
2017-Aug-10 06:30N 53°44' W 000°17'0 0.0
2017-Aug-10 06:00N 53°44' W 000°17'1 2.5
2017-Aug-10 05:30N 53°44' W 000°15'713.8
2017-Aug-10 05:00N 53°38' W 000°08'4217.9
2017-Aug-10 02:39N 53°21' E 000°56'819.5
2017-Aug-10 02:13N 53°15' E 001°07'420.1
2017-Aug-10 02:00N 53°12' E 001°12'1020.5
2017-Aug-10 01:30N 53°05' E 001°23'1020.2
2017-Aug-10 01:00N 52°57' E 001°35'1019.8
2017-Aug-10 00:30N 52°51' E 001°47'918.8
2017-Aug-10 00:00N 52°45' E 001°60'5820.0
2017-Aug-09 21:06N 52°12' E 003°19'0 0.0
2017-Aug-09 21:00N 52°12' E 003°19'4 8.6
2017-Aug-09 20:30N 52°10' E 003°25'918.6
2017-Aug-09 20:00N 52°06' E 003°39'917.6
2017-Aug-09 19:31N 52°04' E 003°52'918.3
2017-Aug-09 19:00N 51°59' E 004°05'3 5.5
2017-Aug-09 18:30N 51°57' E 004°08'0 0.0
2017-Aug-09 18:00N 51°57' E 004°08'0 0.0
2017-Aug-09 17:30N 51°57' E 004°08'0 0.0
2017-Aug-09 17:00N 51°57' E 004°08'0 0.0
2017-Aug-09 16:30N 51°57' E 004°08'0 0.0
2017-Aug-09 16:00N 51°57' E 004°08'0 0.0
2017-Aug-09 15:29N 51°57' E 004°08'0 0.0
2017-Aug-09 14:50N 51°57' E 004°08'0 0.0
2017-Aug-09 14:30N 51°57' E 004°08'0 0.0
2017-Aug-09 14:00N 51°57' E 004°08'0 0.0
2017-Aug-09 13:30N 51°57' E 004°08'0 0.0
2017-Aug-09 13:00N 51°57' E 004°08'0 0.0
2017-Aug-09 12:30N 51°57' E 004°08'0 0.0
2017-Aug-09 12:00N 51°57' E 004°08'0 0.0
2017-Aug-09 11:30N 51°57' E 004°08'0 0.0
2017-Aug-09 11:00N 51°57' E 004°08'0 0.0
2017-Aug-09 10:30N 51°57' E 004°08'0 0.0
2017-Aug-09 10:00N 51°57' E 004°08'0 0.0
2017-Aug-09 09:30N 51°57' E 004°08'0 0.0
2017-Aug-09 09:00N 51°57' E 004°08'0 0.0
2017-Aug-09 08:30N 51°57' E 004°08'0 0.0
2017-Aug-09 08:00N 51°57' E 004°08'0 0.0
2017-Aug-09 07:30N 51°57' E 004°08'0 0.0
2017-Aug-09 07:00N 51°57' E 004°08'0 0.0
2017-Aug-09 06:31N 51°57' E 004°08'3 7.0
2017-Aug-09 06:00N 51°59' E 004°04'917.5
2017-Aug-09 05:30N 52°02' E 003°50'7218.0
2017-Aug-09 01:30N 52°44' E 002°15'918.1
2017-Aug-09 01:00N 52°51' E 002°04'918.1
2017-Aug-09 00:30N 52°56' E 001°52'918.3
2017-Aug-09 00:00N 53°01' E 001°40'918.7
2017-Aug-08 23:30N 53°06' E 001°27'918.7
2017-Aug-08 23:00N 53°12' E 001°15'918.6
2017-Aug-08 22:30N 53°18' E 001°03'4018.4
2017-Aug-08 20:19N 53°35' E 000°02'619.6
2017-Aug-08 20:00N 53°38' W 000°08'816.6
2017-Aug-08 19:30N 53°44' W 000°16'0 0.6
2017-Aug-08 18:58N 53°44' W 000°17'0 0.0
2017-Aug-08 18:28N 53°44' W 000°17'0 0.0
2017-Aug-08 18:00N 53°44' W 000°17'0 0.0
2017-Aug-08 17:30N 53°44' W 000°17'0 0.0
2017-Aug-08 17:00N 53°44' W 000°17'0 0.0
2017-Aug-08 16:30N 53°44' W 000°17'0 0.0
2017-Aug-08 16:00N 53°44' W 000°17'0 0.0
2017-Aug-08 15:29N 53°44' W 000°17'0 0.0
2017-Aug-08 14:59N 53°44' W 000°17'0 0.0
2017-Aug-08 14:29N 53°44' W 000°17'0 0.0
2017-Aug-08 13:59N 53°44' W 000°17'0 0.0
2017-Aug-08 13:28N 53°44' W 000°17'0 0.0
2017-Aug-08 12:58N 53°44' W 000°17'0 0.0
2017-Aug-08 12:28N 53°44' W 000°17'0 0.0
2017-Aug-08 11:58N 53°44' W 000°17'0 0.0
2017-Aug-08 11:28N 53°44' W 000°17'0 0.0
2017-Aug-08 11:00N 53°44' W 000°17'0 0.0
2017-Aug-08 10:30N 53°44' W 000°17'  

Dump ship's entire track history